Terminal Aerodrome Forecast
Issued by NWS

Home | Current Version | Previous Version | Text Only | Print | Product List | Glossary On
Versions: 1 2 3 4 5 6 7 8 9 10 11 12 13
086
FTPA31 PHFO 141735
TAFHKO
TAF
PHKO 141735Z 1418/1518 11004KT P6SM FEW050
     FM142000 22008KT P6SM SCT050
     FM150600 VRB03KT P6SM SCT025 SCT050
     FM151200 07005KT P6SM SCT025
      AMD NOT SKED=

USA.gov is the U.S. government's official web portal to all federal, state and local government web resources and services.